Time;durP1;ratioP1;P1;durP2;ratioP2;P2;SDS_P1;SDS_P2;PMS_P1;PMS_P2;Temp;Humidity;BMP_temperature;BMP_pressure;BME280_temperature;BME280_humidity;BME280_pressure;Samples;Min_cycle;Max_cycle;Signal;HPM_P1;HPM_P2
2023/02/16 00:01:35;;;;;;;48.77;32.60;;;7.90;99.90;;;;;;4915613;29;20341;-80
2023/02/16 00:04:08;;;;;;;45.73;32.23;;;7.90;99.90;;;;;;4914767;29;20261;-77
2023/02/16 00:06:35;;;;;;;43.27;31.73;;;7.90;99.90;;;;;;4915657;29;20198;-79
2023/02/16 00:09:02;;;;;;;47.20;32.40;;;8.00;99.90;;;;;;4915919;29;20266;-79
2023/02/16 00:14:21;;;;;;;51.13;33.50;;;8.00;99.90;;;;;;4915927;29;20253;-80
2023/02/16 00:16:48;;;;;;;50.20;31.93;;;8.00;99.90;;;;;;4915370;29;20331;-80
2023/02/16 00:19:19;;;;;;;45.57;32.90;;;8.00;99.90;;;;;;4925515;29;20288;-80
2023/02/16 00:21:47;;;;;;;46.43;32.93;;;8.00;99.90;;;;;;4938276;29;20296;-78
2023/02/16 00:24:14;;;;;;;47.57;31.63;;;8.00;99.90;;;;;;4937265;29;20791;-80
2023/02/16 00:26:42;;;;;;;52.23;33.57;;;7.90;99.90;;;;;;4937721;29;20233;-80
2023/02/16 00:29:14;;;;;;;47.03;31.90;;;7.90;99.90;;;;;;4937978;29;20238;-81
2023/02/16 00:31:42;;;;;;;51.10;33.27;;;7.90;99.90;;;;;;4937684;29;20194;-81
2023/02/16 00:34:25;;;;;;;52.87;33.43;;;7.90;99.90;;;;;;4927022;29;20372;-79
2023/02/16 00:36:52;;;;;;;48.20;31.73;;;8.00;99.90;;;;;;4918883;29;20467;-79
2023/02/16 00:39:19;;;;;;;43.63;31.77;;;8.00;99.90;;;;;;4918877;29;20242;-81
2023/02/16 00:41:53;;;;;;;49.97;32.80;;;8.00;99.90;;;;;;4918907;29;20229;-80
2023/02/16 00:44:25;;;;;;;44.67;31.57;;;8.00;99.90;;;;;;4918215;29;20211;-80
2023/02/16 00:46:53;;;;;;;53.10;33.97;;;8.00;99.90;;;;;;4918308;29;20285;-80
2023/02/16 00:49:22;;;;;;;45.03;31.53;;;7.90;99.90;;;;;;4918530;29;20787;-82
2023/02/16 00:51:49;;;;;;;41.27;30.20;;;7.90;99.90;;;;;;4917568;29;20202;-80
2023/02/16 00:54:16;;;;;;;45.73;31.77;;;7.90;99.90;;;;;;4919017;29;20238;-80
2023/02/16 00:56:45;;;;;;;42.87;30.80;;;7.90;99.90;;;;;;4918472;29;20294;-81
2023/02/16 00:59:16;;;;;;;46.20;32.47;;;7.90;99.90;;;;;;4917716;29;20194;-79
2023/02/16 01:01:44;;;;;;;45.77;30.73;;;7.90;99.90;;;;;;4918206;29;20214;-79
2023/02/16 01:04:19;;;;;;;50.83;32.63;;;7.90;99.90;;;;;;4918388;29;20202;-78
2023/02/16 01:12:16;;;;;;;48.10;31.53;;;7.90;99.90;;;;;;4928612;29;20260;-79
2023/02/16 01:14:47;;;;;;;48.00;32.10;;;7.90;99.90;;;;;;4936706;29;20222;-79
2023/02/16 01:17:14;;;;;;;48.00;32.23;;;7.90;99.90;;;;;;4936215;29;20276;-82
2023/02/16 01:19:42;;;;;;;45.37;31.53;;;8.00;99.90;;;;;;4936162;29;20209;-82
2023/02/16 01:22:09;;;;;;;47.10;30.70;;;8.00;99.90;;;;;;4937084;29;20480;-82
2023/02/16 01:24:36;;;;;;;43.13;30.17;;;8.00;99.90;;;;;;4936201;29;20242;-82
2023/02/16 01:27:03;;;;;;;45.20;30.93;;;8.00;99.90;;;;;;4935710;29;20202;-83
2023/02/16 01:29:30;;;;;;;49.10;31.70;;;8.00;99.90;;;;;;4936258;29;20246;-81
2023/02/16 01:31:57;;;;;;;45.07;30.93;;;8.10;99.90;;;;;;4935542;29;20281;-81
2023/02/16 01:34:24;;;;;;;48.87;32.10;;;8.10;99.90;;;;;;4936835;29;20549;-83
2023/02/16 01:36:53;;;;;;;45.17;30.90;;;8.10;99.90;;;;;;4937222;29;20268;-81
2023/02/16 01:39:20;;;;;;;46.03;31.27;;;8.20;99.90;;;;;;4936798;29;20600;-80
2023/02/16 01:42:09;;;;;;;45.17;30.33;;;8.20;99.90;;;;;;4935668;29;20320;-82
2023/02/16 01:44:41;;;;;;;45.27;30.17;;;8.20;99.90;;;;;;4937063;29;20629;-79
2023/02/16 01:47:16;;;;;;;43.40;30.83;;;8.20;99.90;;;;;;4936838;29;20200;-81
2023/02/16 01:49:42;;;;;;;43.30;31.83;;;8.20;99.90;;;;;;4934182;29;20288;-81
2023/02/16 01:52:20;;;;;;;49.57;32.40;;;8.20;99.90;;;;;;4917443;29;20282;-82
2023/02/16 01:54:53;;;;;;;47.00;32.43;;;8.20;99.90;;;;;;4917233;29;20305;-82
2023/02/16 01:57:29;;;;;;;41.30;30.40;;;8.30;99.90;;;;;;4917642;29;20282;-80
2023/02/16 02:00:21;;;;;;;46.53;32.17;;;8.30;99.90;;;;;;4917676;29;20202;-80
2023/02/16 02:02:52;;;;;;;53.17;31.93;;;8.30;99.90;;;;;;4915605;29;20207;-79
2023/02/16 02:05:36;;;;;;;44.70;30.80;;;8.30;99.90;;;;;;4918051;29;20206;-80
2023/02/16 02:08:12;;;;;;;46.60;30.57;;;8.30;99.90;;;;;;4917919;29;20360;-80
2023/02/16 02:10:49;;;;;;;46.97;32.37;;;8.30;99.90;;;;;;4917276;29;20190;-80
2023/02/16 02:13:21;;;;;;;45.53;29.73;;;8.30;99.90;;;;;;4918170;29;20201;-79
2023/02/16 02:15:48;;;;;;;39.47;28.47;;;8.30;99.90;;;;;;4917743;29;20294;-78
2023/02/16 02:18:15;;;;;;;43.73;30.77;;;8.30;99.90;;;;;;4917349;29;20498;-79
2023/02/16 02:24:11;;;;;;;45.03;30.20;;;8.40;99.90;;;;;;4916830;29;20194;-81
2023/02/16 02:26:57;;;;;;;50.67;31.00;;;8.40;99.90;;;;;;4917593;29;20570;-78
2023/02/16 02:29:45;;;;;;;47.93;30.20;;;8.50;99.90;;;;;;4917301;29;20553;-76
2023/02/16 02:32:22;;;;;;;43.77;30.23;;;8.50;99.90;;;;;;4916908;29;20258;-78
2023/02/16 02:35:00;;;;;;;45.13;30.50;;;8.40;99.90;;;;;;4917019;29;20305;-80
2023/02/16 02:37:38;;;;;;;41.63;29.40;;;8.40;99.90;;;;;;4916476;29;20202;-79
2023/02/16 02:40:11;;;;;;;43.60;29.83;;;8.50;99.90;;;;;;4928451;29;20252;-81
2023/02/16 02:42:48;;;;;;;40.63;29.63;;;8.40;99.90;;;;;;4935368;29;20222;-80
2023/02/16 02:45:22;;;;;;;49.40;31.47;;;8.50;99.90;;;;;;4935100;29;20194;-79
2023/02/16 02:47:49;;;;;;;44.57;28.83;;;8.50;99.90;;;;;;4934996;29;20202;-79
2023/02/16 02:51:27;;;;;;;46.00;30.27;;;8.50;99.90;;;;;;4936270;29;20249;-79
2023/02/16 02:53:28;;;;;;;43.13;30.20;;;8.50;99.90;;;;;;4935066;29;20236;-79
2023/02/16 03:01:35;;;;;;;47.20;29.57;;;8.50;99.90;;;;;;4917286;29;20195;-78
2023/02/16 03:04:02;;;;;;;42.20;28.43;;;8.50;99.90;;;;;;4916580;29;20205;-81
2023/02/16 03:06:34;;;;;;;37.70;28.23;;;8.50;99.90;;;;;;4916500;29;20285;-80
2023/02/16 03:09:05;;;;;;;41.57;29.47;;;8.50;99.90;;;;;;4932131;29;20198;-80
2023/02/16 03:14:20;;;;;;;44.00;31.47;;;8.50;99.90;;;;;;4935248;29;20229;-79
2023/02/16 03:30:37;;;;;;;44.00;31.23;;;8.50;99.90;;;;;;4934248;29;20278;-80
2023/02/16 03:33:04;;;;;;;45.77;30.97;;;8.60;99.90;;;;;;4915409;29;20202;-80
2023/02/16 03:35:31;;;;;;;47.80;33.57;;;8.50;99.90;;;;;;4916031;29;20333;-80
2023/02/16 03:37:58;;;;;;;44.83;32.60;;;8.50;99.90;;;;;;4922895;29;20218;-81
2023/02/16 03:40:28;;;;;;;45.03;32.27;;;8.50;99.90;;;;;;4934681;29;20308;-80
2023/02/16 03:42:56;;;;;;;46.70;32.63;;;8.60;99.90;;;;;;4917085;29;20217;-80
2023/02/16 03:45:24;;;;;;;47.60;33.30;;;8.60;99.90;;;;;;4916486;29;20226;-79
2023/02/16 03:47:52;;;;;;;44.97;33.53;;;8.50;99.90;;;;;;4916087;29;20285;-80
2023/02/16 03:50:19;;;;;;;45.23;33.67;;;8.50;99.90;;;;;;4916039;29;20743;-80
2023/02/16 03:52:46;;;;;;;46.77;32.37;;;8.60;99.90;;;;;;4922219;29;20585;-80
2023/02/16 03:55:13;;;;;;;49.37;35.30;;;8.60;99.90;;;;;;4938008;29;20642;-80
2023/02/16 03:57:40;;;;;;;49.37;34.10;;;8.60;99.90;;;;;;4938037;29;20213;-80
2023/02/16 04:00:07;;;;;;;52.60;35.67;;;8.60;99.90;;;;;;4937242;29;20216;-81
2023/02/16 04:02:34;;;;;;;47.20;33.47;;;8.60;99.90;;;;;;4938402;29;20289;-81
2023/02/16 04:05:03;;;;;;;50.37;32.73;;;8.60;99.90;;;;;;4938105;29;20232;-80
2023/02/16 04:07:30;;;;;;;44.47;32.77;;;8.60;99.90;;;;;;4938960;29;20213;-79
2023/02/16 04:09:57;;;;;;;49.30;34.33;;;8.60;99.90;;;;;;4937580;29;20210;-79
2023/02/16 04:12:35;;;;;;;47.37;32.43;;;8.60;99.90;;;;;;4933791;29;20215;-80
2023/02/16 04:15:02;;;;;;;46.37;32.80;;;8.60;99.90;;;;;;4919031;29;20306;-80
2023/02/16 04:17:29;;;;;;;46.23;33.20;;;8.60;99.90;;;;;;4919349;29;20224;-79
2023/02/16 04:19:56;;;;;;;49.07;34.07;;;8.60;99.90;;;;;;4926227;29;20220;-79
2023/02/16 04:22:24;;;;;;;48.90;33.17;;;8.60;99.90;;;;;;4937476;29;20222;-79
2023/02/16 04:24:51;;;;;;;50.03;33.93;;;8.60;99.90;;;;;;4938294;29;20612;-80
2023/02/16 04:27:18;;;;;;;50.63;34.10;;;8.50;99.90;;;;;;4921981;29;20214;-80
2023/02/16 04:29:44;;;;;;;54.83;33.73;;;8.60;99.90;;;;;;4918575;29;20213;-79
2023/02/16 04:32:11;;;;;;;51.27;34.67;;;8.50;99.90;;;;;;4921030;29;20195;-80
2023/02/16 04:34:38;;;;;;;50.80;35.43;;;8.50;99.90;;;;;;4938534;29;20340;-80
2023/02/16 04:37:05;;;;;;;45.47;33.00;;;8.50;99.90;;;;;;4937390;29;20305;-80
2023/02/16 04:39:34;;;;;;;51.60;35.13;;;8.50;99.90;;;;;;4937374;29;20244;-80
2023/02/16 04:42:01;;;;;;;45.87;33.33;;;8.50;99.90;;;;;;4938337;29;20237;-80
2023/02/16 04:44:28;;;;;;;49.23;34.70;;;8.50;99.90;;;;;;4937670;29;20202;-79
2023/02/16 04:46:54;;;;;;;49.00;33.40;;;8.50;99.90;;;;;;4938113;29;20284;-80
2023/02/16 04:49:22;;;;;;;48.63;33.83;;;8.50;99.90;;;;;;4925793;29;20297;-79
2023/02/16 04:51:48;;;;;;;52.33;36.10;;;8.50;99.90;;;;;;4918828;29;20567;-79
2023/02/16 04:54:15;;;;;;;48.30;34.37;;;8.50;99.90;;;;;;4918726;29;20211;-79
2023/02/16 04:56:45;;;;;;;50.03;35.63;;;8.50;99.90;;;;;;4933719;29;20507;-78
2023/02/16 04:59:13;;;;;;;48.97;33.83;;;8.50;99.90;;;;;;4936522;28;20296;-80
2023/02/16 05:01:40;;;;;;;55.57;36.40;;;8.50;99.90;;;;;;4937156;29;20213;-79
2023/02/16 05:04:08;;;;;;;54.47;34.57;;;8.50;99.90;;;;;;4937183;29;20229;-80
2023/02/16 05:06:35;;;;;;;47.77;34.60;;;8.50;99.90;;;;;;4937584;29;20198;-80
2023/02/16 05:09:02;;;;;;;47.20;34.40;;;8.40;99.90;;;;;;4937873;29;20576;-80
2023/02/16 05:17:04;;;;;;;50.20;35.07;;;8.50;99.90;;;;;;4937331;29;20217;-79
2023/02/16 05:19:31;;;;;;;56.73;35.50;;;8.50;99.90;;;;;;4936830;29;20249;-81
2023/02/16 05:21:58;;;;;;;60.87;36.10;;;8.50;99.90;;;;;;4937790;29;20237;-80
2023/02/16 05:24:25;;;;;;;50.93;35.63;;;8.50;99.90;;;;;;4937117;29;20198;-79
2023/02/16 05:26:52;;;;;;;50.60;36.33;;;8.50;99.90;;;;;;4917548;29;20203;-80
2023/02/16 05:29:20;;;;;;;48.20;35.47;;;8.40;99.90;;;;;;4917854;29;20218;-80
2023/02/16 05:31:47;;;;;;;56.00;36.07;;;8.50;99.90;;;;;;4918372;29;20241;-80
2023/02/16 05:34:14;;;;;;;54.10;36.20;;;8.40;99.90;;;;;;4918146;29;20199;-80
2023/02/16 05:36:41;;;;;;;46.97;32.43;;;8.40;99.90;;;;;;4936998;29;20197;-79
2023/02/16 05:39:08;;;;;;;54.07;34.03;;;8.40;99.90;;;;;;4937040;29;20233;-81
2023/02/16 05:41:35;;;;;;;58.43;36.97;;;8.40;99.90;;;;;;4936434;29;20222;-80
2023/02/16 05:44:03;;;;;;;50.23;34.60;;;8.40;99.90;;;;;;4937393;29;20257;-82
2023/02/16 05:46:35;;;;;;;52.60;36.20;;;8.40;99.90;;;;;;4926081;29;20206;-79
2023/02/16 05:49:02;;;;;;;52.90;35.30;;;8.40;99.90;;;;;;4920212;29;20778;-78
2023/02/16 05:51:30;;;;;;;53.23;35.30;;;8.40;99.90;;;;;;4936362;29;20773;-80
2023/02/16 05:53:57;;;;;;;56.20;36.27;;;8.40;99.90;;;;;;4917136;29;20231;-81
2023/02/16 05:56:25;;;;;;;54.20;36.23;;;8.40;99.90;;;;;;4917082;29;20378;-79
2023/02/16 05:58:52;;;;;;;48.67;34.60;;;8.40;99.90;;;;;;4918204;29;20213;-79
2023/02/16 06:01:20;;;;;;;52.80;36.90;;;8.40;99.90;;;;;;4917476;29;20704;-81
2023/02/16 06:03:48;;;;;;;45.83;33.30;;;8.50;99.90;;;;;;4932341;29;20713;-79
2023/02/16 06:06:15;;;;;;;47.90;34.17;;;8.40;99.90;;;;;;4936713;29;20198;-80
2023/02/16 06:08:42;;;;;;;50.17;34.67;;;8.40;99.90;;;;;;4921714;29;20206;-80
2023/02/16 06:11:34;;;;;;;50.53;35.10;;;8.40;99.90;;;;;;4917660;29;20295;-80
2023/02/16 06:13:58;;;;;;;50.80;35.53;;;8.40;99.90;;;;;;4931156;29;20210;-80
2023/02/16 06:16:25;;;;;;;55.50;35.40;;;8.40;99.90;;;;;;4935807;29;20237;-81
2023/02/16 06:18:54;;;;;;;50.23;35.07;;;8.40;99.90;;;;;;4922224;29;20292;-80
2023/02/16 06:21:21;;;;;;;55.40;37.13;;;8.50;99.90;;;;;;4933129;29;20221;-81
2023/02/16 06:23:49;;;;;;;57.33;35.53;;;8.50;99.90;;;;;;4935749;29;20214;-80
2023/02/16 06:26:16;;;;;;;50.87;35.77;;;8.50;99.90;;;;;;4931303;29;20240;-81
2023/02/16 06:28:43;;;;;;;47.50;35.17;;;8.50;99.90;;;;;;4917038;29;20496;-80
2023/02/16 06:31:11;;;;;;;51.47;35.47;;;8.50;99.90;;;;;;4917533;29;20210;-80
2023/02/16 06:33:38;;;;;;;48.33;34.70;;;8.40;99.90;;;;;;4917051;29;20254;-81
2023/02/16 06:36:07;;;;;;;48.43;34.90;;;8.50;99.90;;;;;;4930124;29;20314;-81
2023/02/16 06:38:34;;;;;;;51.43;35.30;;;8.50;99.90;;;;;;4936145;29;20261;-80
2023/02/16 06:41:01;;;;;;;50.30;34.23;;;8.50;99.90;;;;;;4936250;29;20309;-80
2023/02/16 06:43:28;;;;;;;49.80;35.23;;;8.50;99.90;;;;;;4935547;29;20733;-78
2023/02/16 06:45:55;;;;;;;53.77;36.23;;;8.50;99.90;;;;;;4935336;29;20210;-80
2023/02/16 06:48:22;;;;;;;52.03;36.53;;;8.50;99.90;;;;;;4929821;29;20212;-79
2023/02/16 06:50:49;;;;;;;50.07;34.77;;;8.50;99.90;;;;;;4915841;29;20886;-79
2023/02/16 06:53:19;;;;;;;50.43;35.90;;;8.50;99.90;;;;;;4916360;29;20523;-80
2023/02/16 06:55:46;;;;;;;54.93;37.73;;;8.50;99.90;;;;;;4916922;29;20215;-79
2023/02/16 06:58:13;;;;;;;50.40;35.20;;;8.50;99.90;;;;;;4916559;29;20258;-80
2023/02/16 07:00:40;;;;;;;54.73;36.80;;;8.50;99.90;;;;;;4916254;29;20203;-80
2023/02/16 07:03:07;;;;;;;56.87;38.00;;;8.50;99.90;;;;;;4916084;29;20207;-81
2023/02/16 07:05:34;;;;;;;59.23;38.80;;;8.50;99.90;;;;;;4934438;29;20234;-81
2023/02/16 07:08:01;;;;;;;51.17;36.17;;;8.50;99.90;;;;;;4935417;29;20288;-80
2023/02/16 07:10:29;;;;;;;53.60;38.73;;;8.50;99.90;;;;;;4935988;29;20204;-79
2023/02/16 07:12:56;;;;;;;59.77;37.13;;;8.50;99.90;;;;;;4935204;29;20288;-80
2023/02/16 07:15:23;;;;;;;48.43;35.73;;;8.50;99.90;;;;;;4934378;29;20217;-79
2023/02/16 07:17:50;;;;;;;57.97;35.80;;;8.50;99.90;;;;;;4916288;29;20603;-79
2023/02/16 07:20:18;;;;;;;52.17;36.67;;;8.50;99.90;;;;;;4916598;29;20673;-80
2023/02/16 07:22:44;;;;;;;52.20;37.00;;;8.50;99.90;;;;;;4917547;29;20207;-80
2023/02/16 07:25:11;;;;;;;55.17;37.70;;;8.50;99.90;;;;;;4915363;29;20234;-80
2023/02/16 07:27:40;;;;;;;49.93;35.87;;;8.50;99.90;;;;;;4916276;29;20584;-78
2023/02/16 07:30:09;;;;;;;53.40;36.53;;;8.50;99.90;;;;;;4916300;29;20232;-82
2023/02/16 07:32:36;;;;;;;51.10;35.70;;;8.50;99.90;;;;;;4916298;29;20207;-81
2023/02/16 07:35:03;;;;;;;55.00;36.83;;;8.50;99.90;;;;;;4916258;29;20234;-80
2023/02/16 07:37:30;;;;;;;53.97;36.77;;;8.60;99.90;;;;;;4917537;29;20211;-81
2023/02/16 07:39:57;;;;;;;56.70;36.83;;;8.60;99.90;;;;;;4916832;29;20318;-80
2023/02/16 07:42:24;;;;;;;51.87;36.37;;;8.60;99.90;;;;;;4919807;29;20328;-82
2023/02/16 07:44:53;;;;;;;53.40;36.43;;;8.60;99.90;;;;;;4935811;29;20205;-83
2023/02/16 07:47:19;;;;;;;53.70;37.27;;;8.60;99.90;;;;;;4936219;29;20216;-83
2023/02/16 07:49:46;;;;;;;54.03;37.10;;;8.60;99.90;;;;;;4936252;29;20209;-83
2023/02/16 07:52:13;;;;;;;56.90;38.13;;;8.60;99.90;;;;;;4936272;29;20305;-84
2023/02/16 07:54:40;;;;;;;59.80;39.27;;;8.70;99.90;;;;;;4932671;29;20219;-81
2023/02/16 07:57:07;;;;;;;52.37;36.43;;;8.70;99.90;;;;;;4925975;29;20296;-82
2023/02/16 07:59:34;;;;;;;59.23;38.87;;;8.70;99.90;;;;;;4935461;29;20244;-81
2023/02/16 08:02:02;;;;;;;56.77;38.33;;;8.70;99.90;;;;;;4934701;29;20322;-82
2023/02/16 08:04:29;;;;;;;52.53;36.93;;;8.70;99.90;;;;;;4934230;29;20210;-79
2023/02/16 08:07:00;;;;;;;54.57;36.07;;;8.80;99.90;;;;;;4934851;29;20233;-78
2023/02/16 08:09:27;;;;;;;57.77;38.27;;;8.80;99.90;;;;;;4934403;29;20230;-78
2023/02/16 08:11:54;;;;;;;52.83;36.67;;;8.80;99.90;;;;;;4934268;29;20241;-79
2023/02/16 08:14:21;;;;;;;57.57;37.03;;;8.80;99.90;;;;;;4933306;29;20596;-78
2023/02/16 08:16:48;;;;;;;60.43;39.53;;;8.80;99.90;;;;;;4933457;29;20686;-78
2023/02/16 08:19:17;;;;;;;58.90;37.87;;;8.80;99.90;;;;;;4935825;29;20289;-79
2023/02/16 08:21:48;;;;;;;61.30;37.03;;;8.80;99.90;;;;;;4933243;29;20513;-78
2023/02/16 08:24:15;;;;;;;59.63;37.63;;;8.80;99.90;;;;;;4926408;29;20281;-79
2023/02/16 08:26:43;;;;;;;61.73;39.20;;;8.80;99.90;;;;;;4933650;29;20205;-78
2023/02/16 08:29:13;;;;;;;66.33;38.17;;;8.80;99.90;;;;;;4933511;29;20295;-78
2023/02/16 08:31:40;;;;;;;57.27;35.77;;;8.80;99.90;;;;;;4933963;29;20246;-80
2023/02/16 08:34:08;;;;;;;60.63;37.33;;;8.80;99.90;;;;;;4934052;29;20209;-80
2023/02/16 08:36:38;;;;;;;63.80;38.07;;;8.80;99.90;;;;;;4932666;29;20654;-80
2023/02/16 08:39:07;;;;;;;56.63;36.23;;;8.80;99.90;;;;;;4949004;28;20292;-80
2023/02/16 08:41:36;;;;;;;59.47;37.47;;;8.80;99.90;;;;;;4937039;29;20228;-82
2023/02/16 08:44:04;;;;;;;52.97;36.73;;;8.80;99.90;;;;;;4937139;29;20208;-79
2023/02/16 08:46:33;;;;;;;55.87;38.00;;;8.80;99.90;;;;;;4936323;29;20206;-81
2023/02/16 08:49:00;;;;;;;50.80;34.73;;;8.80;99.90;;;;;;4931026;29;20210;-79
2023/02/16 08:51:29;;;;;;;60.47;36.73;;;8.80;99.90;;;;;;4937989;29;20653;-83
2023/02/16 08:53:59;;;;;;;62.40;38.10;;;8.90;99.90;;;;;;4938319;29;20217;-82
2023/02/16 08:56:28;;;;;;;56.97;35.43;;;8.90;99.90;;;;;;4937118;29;20241;-80
2023/02/16 08:58:55;;;;;;;54.30;35.60;;;8.90;99.90;;;;;;4940755;29;20202;-78
2023/02/16 09:01:22;;;;;;;54.30;34.63;;;8.90;99.90;;;;;;4954501;23;20243;-80
2023/02/16 09:03:50;;;;;;;55.50;37.67;;;8.90;99.90;;;;;;4956604;29;20990;-80
2023/02/16 09:06:20;;;;;;;53.87;35.60;;;8.90;99.90;;;;;;4958073;28;20204;-83
2023/02/16 09:08:51;;;;;;;54.97;35.03;;;9.00;99.90;;;;;;4953186;28;20210;-83
2023/02/16 09:11:20;;;;;;;57.87;35.07;;;9.00;99.90;;;;;;4938656;29;20206;-82
2023/02/16 09:13:48;;;;;;;56.30;35.17;;;9.00;99.90;;;;;;4949216;28;20296;-84
2023/02/16 09:16:17;;;;;;;60.63;36.30;;;9.00;99.90;;;;;;4941828;28;20218;-81
2023/02/16 09:18:45;;;;;;;63.87;38.23;;;9.00;99.90;;;;;;4956895;28;20224;-82
2023/02/16 09:21:14;;;;;;;50.23;35.37;;;9.10;99.90;;;;;;4956755;28;20321;-83
2023/02/16 09:23:43;;;;;;;57.30;37.07;;;9.00;99.90;;;;;;4959912;28;20295;-82
2023/02/16 09:26:10;;;;;;;54.17;34.70;;;9.10;99.90;;;;;;4962343;28;20288;-83
2023/02/16 09:28:40;;;;;;;56.03;35.57;;;9.10;99.90;;;;;;4957107;28;20263;-83
2023/02/16 09:31:11;;;;;;;53.50;35.27;;;9.10;99.90;;;;;;4957529;29;20300;-85
2023/02/16 09:33:38;;;;;;;56.97;36.27;;;9.10;99.90;;;;;;4954527;28;20209;-82
2023/02/16 09:36:06;;;;;;;60.23;37.90;;;9.20;99.90;;;;;;4956977;28;20221;-83
2023/02/16 09:38:33;;;;;;;63.27;37.47;;;9.30;99.90;;;;;;4955314;29;20673;-83
2023/02/16 09:41:06;;;;;;;69.00;39.30;;;9.30;99.90;;;;;;4955467;28;20682;-80
2023/02/16 09:43:45;;;;;;;61.50;38.53;;;9.30;99.90;;;;;;4956486;29;20217;-81
2023/02/16 09:46:15;;;;;;;63.20;40.07;;;9.30;99.90;;;;;;4956305;29;20212;-82
2023/02/16 09:48:47;;;;;;;57.50;39.23;;;9.30;99.90;;;;;;4956987;29;20205;-82
2023/02/16 09:51:19;;;;;;;60.20;37.77;;;9.30;99.90;;;;;;4939513;29;20217;-82
2023/02/16 09:53:54;;;;;;;54.63;37.80;;;9.30;99.90;;;;;;4937992;29;20226;-80
2023/02/16 09:56:28;;;;;;;58.53;39.27;;;9.30;99.90;;;;;;4937903;29;20206;-81
2023/02/16 09:59:03;;;;;;;56.53;39.67;;;9.30;99.90;;;;;;4938852;29;20293;-82
2023/02/16 10:01:38;;;;;;;62.90;41.00;;;9.40;99.90;;;;;;4956164;29;20296;-80
2023/02/16 10:04:24;;;;;;;56.60;39.43;;;9.40;99.90;;;;;;4955655;29;20211;-80
2023/02/16 10:06:59;;;;;;;63.83;39.87;;;9.40;99.90;;;;;;4936912;29;20293;-80
2023/02/16 10:09:28;;;;;;;65.27;39.77;;;9.50;99.90;;;;;;4937569;29;20240;-80
2023/02/16 10:12:02;;;;;;;61.73;39.07;;;9.60;99.90;;;;;;4936850;29;20194;-82
2023/02/16 10:14:40;;;;;;;56.37;38.87;;;9.60;99.90;;;;;;4937034;29;20655;-80
2023/02/16 10:17:15;;;;;;;58.07;38.47;;;9.70;99.90;;;;;;4936428;29;20217;-82
2023/02/16 10:19:46;;;;;;;62.40;40.27;;;9.80;99.90;;;;;;4937309;29;20435;-83
2023/02/16 10:22:17;;;;;;;53.83;38.70;;;9.90;99.90;;;;;;4950290;29;20579;-79
2023/02/16 10:24:50;;;;;;;63.63;39.67;;;9.90;99.90;;;;;;4944793;29;20214;-83
2023/02/16 10:27:18;;;;;;;59.80;40.27;;;10.00;99.90;;;;;;4937093;29;20276;-82
2023/02/16 10:29:47;;;;;;;58.73;41.13;;;10.10;99.90;;;;;;4936284;29;20248;-80
2023/02/16 10:32:25;;;;;;;58.20;39.20;;;10.20;99.90;;;;;;4936328;29;20513;-79
2023/02/16 10:35:02;;;;;;;59.90;39.93;;;10.30;99.90;;;;;;4951184;28;20800;-77
2023/02/16 10:37:40;;;;;;;53.03;36.43;;;10.40;99.90;;;;;;4962045;28;20264;-84
2023/02/16 10:40:26;;;;;;;56.33;36.37;;;10.40;99.90;;;;;;4963198;23;20205;-82
2023/02/16 10:43:00;;;;;;;54.77;37.23;;;10.40;99.90;;;;;;4951897;28;20316;-81
2023/02/16 10:45:33;;;;;;;56.67;37.53;;;10.40;99.90;;;;;;4954521;28;20217;-81
2023/02/16 10:48:00;;;;;;;50.27;36.57;;;10.50;99.90;;;;;;4954358;29;20205;-81
2023/02/16 10:50:31;;;;;;;52.97;35.70;;;10.60;99.90;;;;;;4953562;29;20213;-82
2023/02/16 10:53:01;;;;;;;50.17;36.07;;;10.60;99.90;;;;;;4948952;29;20249;-82
2023/02/16 10:55:28;;;;;;;52.77;34.20;;;10.70;99.90;;;;;;4947835;29;20625;-80
2023/02/16 10:57:58;;;;;;;55.20;37.73;;;10.70;99.90;;;;;;4943182;29;20656;-80
2023/02/16 11:00:39;;;;;;;49.63;33.77;;;10.80;99.90;;;;;;4953228;29;20403;-80
2023/02/16 11:03:11;;;;;;;49.23;33.83;;;10.90;99.90;;;;;;4944880;29;20288;-79
2023/02/16 11:05:40;;;;;;;44.17;31.97;;;11.00;99.90;;;;;;4953527;29;20309;-79
2023/02/16 11:08:11;;;;;;;50.80;31.80;;;11.00;99.90;;;;;;4953152;29;20763;-78
2023/02/16 11:10:41;;;;;;;41.17;29.10;;;11.10;99.90;;;;;;4952561;28;20197;-79
2023/02/16 11:13:22;;;;;;;44.73;30.07;;;11.10;99.90;;;;;;4950591;29;20198;-80
2023/02/16 11:15:54;;;;;;;43.63;28.27;;;11.20;99.90;;;;;;4945408;28;20211;-79
2023/02/16 11:18:35;;;;;;;40.90;27.17;;;11.30;99.90;;;;;;4952238;29;20762;-79
2023/02/16 11:21:02;;;;;;;41.73;27.23;;;11.40;99.90;;;;;;4950438;29;20843;-76
2023/02/16 11:23:31;;;;;;;37.43;27.20;;;11.50;99.90;;;;;;4946705;29;20624;-78
2023/02/16 11:26:02;;;;;;;39.17;26.17;;;11.60;99.90;;;;;;4951849;29;20576;-76
2023/02/16 11:28:32;;;;;;;35.27;26.10;;;11.70;99.90;;;;;;4952746;29;20272;-76
2023/02/16 11:31:15;;;;;;;39.53;26.83;;;11.80;99.90;;;;;;4953043;29;20296;-76
2023/02/16 11:33:53;;;;;;;38.47;29.97;;;11.90;99.90;;;;;;4952450;29;20530;-79
2023/02/16 11:36:28;;;;;;;40.13;28.43;;;11.80;99.90;;;;;;4952660;29;20194;-80
2023/02/16 11:39:05;;;;;;;38.83;28.30;;;11.90;99.90;;;;;;4952874;29;20260;-76
2023/02/16 11:41:33;;;;;;;31.53;24.40;;;12.10;99.90;;;;;;4946699;29;20373;-76
2023/02/16 11:44:02;;;;;;;35.50;24.23;;;12.10;99.90;;;;;;4953053;29;20288;-76
2023/02/16 11:46:39;;;;;;;26.03;20.53;;;12.20;99.90;;;;;;4943770;29;20569;-77
2023/02/16 11:49:21;;;;;;;26.73;21.73;;;12.30;99.90;;;;;;4934080;29;20290;-78
2023/02/16 11:51:48;;;;;;;27.97;19.90;;;12.30;99.90;;;;;;4935428;29;20205;-77
2023/02/16 11:54:17;;;;;;;27.63;20.33;;;12.30;99.90;;;;;;4934203;29;20285;-79
2023/02/16 11:57:00;;;;;;;29.97;22.67;;;12.40;99.90;;;;;;4934489;29;20225;-77
2023/02/16 11:59:30;;;;;;;30.70;24.33;;;12.50;99.90;;;;;;4934499;29;20221;-77
2023/02/16 12:02:24;;;;;;;36.93;27.27;;;12.60;99.90;;;;;;4934781;29;20202;-76
2023/02/16 12:05:06;;;;;;;37.00;28.87;;;12.70;99.90;;;;;;4934651;29;20301;-77
2023/02/16 12:07:40;;;;;;;36.07;26.70;;;12.70;99.90;;;;;;4934482;29;20193;-82
2023/02/16 12:10:12;;;;;;;33.97;27.60;;;12.80;99.90;;;;;;4934786;29;20205;-77
2023/02/16 12:12:48;;;;;;;34.53;25.93;;;12.90;99.90;;;;;;4935181;29;20198;-80
2023/02/16 12:15:25;;;;;;;28.37;20.57;;;12.90;99.90;;;;;;4952204;28;20220;-84
2023/02/16 12:18:18;;;;;;;19.07;15.40;;;13.00;99.90;;;;;;4957272;29;20293;-81
2023/02/16 12:20:54;;;;;;;19.50;15.63;;;13.00;99.90;;;;;;4953947;29;20574;-81
2023/02/16 12:23:34;;;;;;;20.67;16.00;;;13.10;99.90;;;;;;4949513;29;20551;-80
2023/02/16 12:26:25;;;;;;;19.73;14.43;;;13.10;99.90;;;;;;4950518;29;20208;-82
2023/02/16 12:29:03;;;;;;;22.60;14.80;;;13.10;99.90;;;;;;4947111;29;20598;-79
2023/02/16 12:31:46;;;;;;;21.07;14.30;;;13.10;99.90;;;;;;4951027;29;20205;-81
2023/02/16 12:34:22;;;;;;;16.10;11.40;;;13.00;99.90;;;;;;4957137;29;20233;-75
2023/02/16 12:36:57;;;;;;;12.93;10.00;;;12.90;99.90;;;;;;4956598;29;20755;-77
2023/02/16 12:39:32;;;;;;;10.97;9.53;;;12.90;99.90;;;;;;4951939;29;20620;-76
2023/02/16 12:42:20;;;;;;;13.07;8.93;;;12.90;99.90;;;;;;4956055;29;20247;-77
2023/02/16 12:44:50;;;;;;;10.30;7.60;;;12.80;99.90;;;;;;4954963;28;20255;-77
2023/02/16 12:47:21;;;;;;;9.37;7.43;;;12.80;99.90;;;;;;4956752;28;20253;-75
2023/02/16 12:49:53;;;;;;;9.67;7.67;;;12.70;99.90;;;;;;4941069;29;20205;-76
2023/02/16 12:52:32;;;;;;;10.27;7.20;;;12.70;99.90;;;;;;4953447;29;20561;-77
2023/02/16 12:55:18;;;;;;;17.23;7.87;;;12.70;99.90;;;;;;4944729;29;20220;-77
2023/02/16 12:57:53;;;;;;;11.97;8.63;;;12.60;99.90;;;;;;4937057;29;20806;-78
2023/02/16 13:00:26;;;;;;;14.30;9.43;;;12.60;99.90;;;;;;4937171;29;20198;-81
2023/02/16 13:02:56;;;;;;;13.47;10.17;;;12.60;99.90;;;;;;4937004;29;20217;-76
2023/02/16 13:05:31;;;;;;;16.30;10.93;;;12.70;99.90;;;;;;4938046;29;20198;-77
2023/02/16 13:08:06;;;;;;;15.70;11.23;;;12.70;99.90;;;;;;4937249;29;20557;-75
2023/02/16 13:10:37;;;;;;;15.00;12.20;;;12.70;99.90;;;;;;4948593;28;20664;-75
2023/02/16 13:13:09;;;;;;;17.27;12.80;;;12.80;99.90;;;;;;4952630;28;20300;-76
2023/02/16 13:15:38;;;;;;;20.43;14.27;;;12.70;99.90;;;;;;4955560;28;20205;-77
2023/02/16 13:18:12;;;;;;;18.60;13.07;;;12.80;99.90;;;;;;4969894;28;20221;-78
2023/02/16 13:20:45;;;;;;;21.73;14.17;;;12.70;99.90;;;;;;4951607;28;20197;-79
2023/02/16 13:23:30;;;;;;;21.17;14.43;;;12.70;99.90;;;;;;4952530;28;20288;-78
2023/02/16 13:26:16;;;;;;;18.67;13.80;;;12.70;99.90;;;;;;4955838;28;20646;-79
2023/02/16 13:29:02;;;;;;;20.63;13.70;;;12.70;99.90;;;;;;4956625;29;20193;-78
2023/02/16 13:31:37;;;;;;;19.30;14.23;;;12.70;99.90;;;;;;4955107;28;20216;-78
2023/02/16 13:34:37;;;;;;;20.57;15.57;;;12.60;99.90;;;;;;4956193;29;20288;-76